sensor_id;sensor_type;location;lat;lon;timestamp;P1;durP1;ratioP1;P2;durP2;ratioP2
11228;SDS011;5671;47.936;8.716;2023-02-27T00:01:02;0.70;;;0.70;;
11228;SDS011;5671;47.936;8.716;2023-02-27T00:03:29;1.30;;;1.03;;
11228;SDS011;5671;47.936;8.716;2023-02-27T00:05:56;1.35;;;0.98;;
11228;SDS011;5671;47.936;8.716;2023-02-27T00:08:23;1.02;;;0.93;;
11228;SDS011;5671;47.936;8.716;2023-02-27T00:10:50;1.77;;;1.10;;
11228;SDS011;5671;47.936;8.716;2023-02-27T00:13:18;1.23;;;1.13;;
11228;SDS011;5671;47.936;8.716;2023-02-27T00:15:45;0.93;;;0.82;;
11228;SDS011;5671;47.936;8.716;2023-02-27T00:18:13;0.75;;;0.75;;
11228;SDS011;5671;47.936;8.716;2023-02-27T00:20:40;2.15;;;0.95;;
11228;SDS011;5671;47.936;8.716;2023-02-27T00:23:07;1.38;;;0.85;;
11228;SDS011;5671;47.936;8.716;2023-02-27T00:25:34;1.30;;;1.10;;
11228;SDS011;5671;47.936;8.716;2023-02-27T00:28:02;1.27;;;1.17;;
11228;SDS011;5671;47.936;8.716;2023-02-27T00:30:30;1.20;;;0.60;;
11228;SDS011;5671;47.936;8.716;2023-02-27T00:32:57;1.88;;;1.42;;
11228;SDS011;5671;47.936;8.716;2023-02-27T00:35:24;1.40;;;1.17;;
11228;SDS011;5671;47.936;8.716;2023-02-27T00:37:51;1.77;;;1.08;;
11228;SDS011;5671;47.936;8.716;2023-02-27T00:40:18;1.00;;;0.90;;
11228;SDS011;5671;47.936;8.716;2023-02-27T00:42:45;1.87;;;1.20;;
11228;SDS011;5671;47.936;8.716;2023-02-27T00:45:12;1.30;;;1.17;;
11228;SDS011;5671;47.936;8.716;2023-02-27T00:47:40;1.55;;;1.00;;
11228;SDS011;5671;47.936;8.716;2023-02-27T00:50:08;1.10;;;1.00;;
11228;SDS011;5671;47.936;8.716;2023-02-27T00:52:35;0.97;;;0.97;;
11228;SDS011;5671;47.936;8.716;2023-02-27T00:55:02;1.48;;;1.35;;
11228;SDS011;5671;47.936;8.716;2023-02-27T00:57:29;1.65;;;1.00;;
11228;SDS011;5671;47.936;8.716;2023-02-27T00:59:56;1.27;;;1.15;;
11228;SDS011;5671;47.936;8.716;2023-02-27T01:02:23;0.98;;;0.90;;
11228;SDS011;5671;47.936;8.716;2023-02-27T01:04:51;1.15;;;1.05;;
11228;SDS011;5671;47.936;8.716;2023-02-27T01:07:18;1.27;;;1.17;;
11228;SDS011;5671;47.936;8.716;2023-02-27T01:09:44;1.30;;;1.20;;
11228;SDS011;5671;47.936;8.716;2023-02-27T01:12:11;1.00;;;1.00;;
11228;SDS011;5671;47.936;8.716;2023-02-27T01:14:38;2.30;;;1.20;;
11228;SDS011;5671;47.936;8.716;2023-02-27T01:17:05;1.05;;;0.93;;
11228;SDS011;5671;47.936;8.716;2023-02-27T01:19:32;0.88;;;0.88;;
11228;SDS011;5671;47.936;8.716;2023-02-27T01:22:00;1.08;;;1.08;;
11228;SDS011;5671;47.936;8.716;2023-02-27T01:24:27;1.75;;;1.25;;
11228;SDS011;5671;47.936;8.716;2023-02-27T01:26:53;0.90;;;0.90;;
11228;SDS011;5671;47.936;8.716;2023-02-27T01:29:20;1.45;;;1.20;;
11228;SDS011;5671;47.936;8.716;2023-02-27T01:31:47;1.42;;;1.05;;
11228;SDS011;5671;47.936;8.716;2023-02-27T01:34:14;1.30;;;1.20;;
11228;SDS011;5671;47.936;8.716;2023-02-27T01:36:41;1.30;;;1.17;;
11228;SDS011;5671;47.936;8.716;2023-02-27T01:39:09;1.30;;;1.20;;
11228;SDS011;5671;47.936;8.716;2023-02-27T01:41:36;2.10;;;1.25;;
11228;SDS011;5671;47.936;8.716;2023-02-27T01:44:04;1.20;;;1.08;;
11228;SDS011;5671;47.936;8.716;2023-02-27T01:46:32;1.30;;;1.20;;
11228;SDS011;5671;47.936;8.716;2023-02-27T01:49:02;1.40;;;1.27;;
11228;SDS011;5671;47.936;8.716;2023-02-27T01:51:33;4.18;;;1.20;;
11228;SDS011;5671;47.936;8.716;2023-02-27T01:54:05;1.25;;;1.15;;
11228;SDS011;5671;47.936;8.716;2023-02-27T01:56:36;1.20;;;1.10;;
11228;SDS011;5671;47.936;8.716;2023-02-27T01:59:05;1.45;;;1.20;;
11228;SDS011;5671;47.936;8.716;2023-02-27T02:01:34;1.83;;;1.25;;
11228;SDS011;5671;47.936;8.716;2023-02-27T02:04:04;1.20;;;1.10;;
11228;SDS011;5671;47.936;8.716;2023-02-27T02:06:37;2.53;;;0.98;;
11228;SDS011;5671;47.936;8.716;2023-02-27T02:09:06;1.30;;;1.20;;
11228;SDS011;5671;47.936;8.716;2023-02-27T02:11:34;1.50;;;1.20;;
11228;SDS011;5671;47.936;8.716;2023-02-27T02:14:04;1.55;;;1.00;;
11228;SDS011;5671;47.936;8.716;2023-02-27T02:16:40;3.05;;;1.40;;
11228;SDS011;5671;47.936;8.716;2023-02-27T02:19:41;1.30;;;1.20;;
11228;SDS011;5671;47.936;8.716;2023-02-27T02:25:23;1.13;;;1.02;;
11228;SDS011;5671;47.936;8.716;2023-02-27T02:28:11;1.75;;;1.30;;
11228;SDS011;5671;47.936;8.716;2023-02-27T02:30:55;1.35;;;1.20;;
11228;SDS011;5671;47.936;8.716;2023-02-27T02:33:44;1.33;;;1.23;;
11228;SDS011;5671;47.936;8.716;2023-02-27T02:36:33;2.05;;;1.35;;
11228;SDS011;5671;47.936;8.716;2023-02-27T02:42:31;1.48;;;1.38;;
11228;SDS011;5671;47.936;8.716;2023-02-27T02:45:08;1.27;;;1.17;;
11228;SDS011;5671;47.936;8.716;2023-02-27T02:47:41;2.10;;;1.23;;
11228;SDS011;5671;47.936;8.716;2023-02-27T02:50:19;1.65;;;1.50;;
11228;SDS011;5671;47.936;8.716;2023-02-27T02:52:53;3.40;;;1.20;;
11228;SDS011;5671;47.936;8.716;2023-02-27T02:55:31;1.45;;;1.10;;
11228;SDS011;5671;47.936;8.716;2023-02-27T02:58:01;1.50;;;1.17;;
11228;SDS011;5671;47.936;8.716;2023-02-27T03:00:34;3.03;;;1.20;;
11228;SDS011;5671;47.936;8.716;2023-02-27T03:03:07;2.00;;;1.40;;
11228;SDS011;5671;47.936;8.716;2023-02-27T03:05:38;2.00;;;1.27;;
11228;SDS011;5671;47.936;8.716;2023-02-27T03:08:10;1.50;;;1.40;;
11228;SDS011;5671;47.936;8.716;2023-02-27T03:10:43;1.25;;;1.15;;
11228;SDS011;5671;47.936;8.716;2023-02-27T03:13:16;1.58;;;1.30;;
11228;SDS011;5671;47.936;8.716;2023-02-27T03:15:48;1.40;;;1.30;;
11228;SDS011;5671;47.936;8.716;2023-02-27T03:18:20;1.38;;;1.27;;
11228;SDS011;5671;47.936;8.716;2023-02-27T03:20:50;1.77;;;1.40;;
11228;SDS011;5671;47.936;8.716;2023-02-27T03:23:20;1.30;;;1.20;;
11228;SDS011;5671;47.936;8.716;2023-02-27T03:25:54;1.83;;;1.30;;
11228;SDS011;5671;47.936;8.716;2023-02-27T03:28:21;2.20;;;0.82;;
11228;SDS011;5671;47.936;8.716;2023-02-27T03:30:53;1.58;;;1.08;;
11228;SDS011;5671;47.936;8.716;2023-02-27T03:33:26;1.02;;;0.80;;
11228;SDS011;5671;47.936;8.716;2023-02-27T03:35:57;1.48;;;1.30;;
11228;SDS011;5671;47.936;8.716;2023-02-27T03:38:30;1.67;;;1.58;;
11228;SDS011;5671;47.936;8.716;2023-02-27T03:41:07;1.57;;;1.27;;
11228;SDS011;5671;47.936;8.716;2023-02-27T03:43:39;1.35;;;1.00;;
11228;SDS011;5671;47.936;8.716;2023-02-27T03:46:13;1.30;;;1.20;;
11228;SDS011;5671;47.936;8.716;2023-02-27T03:48:43;1.67;;;1.50;;
11228;SDS011;5671;47.936;8.716;2023-02-27T03:51:11;2.15;;;1.17;;
11228;SDS011;5671;47.936;8.716;2023-02-27T03:53:39;1.25;;;1.15;;
11228;SDS011;5671;47.936;8.716;2023-02-27T03:56:12;1.00;;;1.00;;
11228;SDS011;5671;47.936;8.716;2023-02-27T03:58:41;1.10;;;1.10;;
11228;SDS011;5671;47.936;8.716;2023-02-27T04:01:08;1.05;;;1.05;;
11228;SDS011;5671;47.936;8.716;2023-02-27T04:03:36;1.85;;;1.30;;
11228;SDS011;5671;47.936;8.716;2023-02-27T04:06:08;1.65;;;1.10;;
11228;SDS011;5671;47.936;8.716;2023-02-27T04:08:50;1.00;;;1.00;;
11228;SDS011;5671;47.936;8.716;2023-02-27T04:11:32;1.25;;;1.15;;
11228;SDS011;5671;47.936;8.716;2023-02-27T04:14:18;1.60;;;1.50;;
11228;SDS011;5671;47.936;8.716;2023-02-27T04:16:56;1.52;;;1.30;;
11228;SDS011;5671;47.936;8.716;2023-02-27T04:19:50;2.47;;;1.30;;
11228;SDS011;5671;47.936;8.716;2023-02-27T04:22:46;1.42;;;1.33;;
11228;SDS011;5671;47.936;8.716;2023-02-27T04:25:20;1.58;;;1.48;;
11228;SDS011;5671;47.936;8.716;2023-02-27T04:27:57;1.48;;;1.30;;
11228;SDS011;5671;47.936;8.716;2023-02-27T04:30:35;1.50;;;1.40;;
11228;SDS011;5671;47.936;8.716;2023-02-27T04:33:11;1.95;;;1.30;;
11228;SDS011;5671;47.936;8.716;2023-02-27T04:35:47;1.77;;;1.50;;
11228;SDS011;5671;47.936;8.716;2023-02-27T04:38:17;1.58;;;1.40;;
11228;SDS011;5671;47.936;8.716;2023-02-27T04:40:47;1.40;;;1.30;;
11228;SDS011;5671;47.936;8.716;2023-02-27T04:43:21;6.45;;;1.73;;
11228;SDS011;5671;47.936;8.716;2023-02-27T04:45:50;1.60;;;1.50;;
11228;SDS011;5671;47.936;8.716;2023-02-27T04:48:28;1.50;;;1.25;;
11228;SDS011;5671;47.936;8.716;2023-02-27T04:51:01;1.10;;;1.10;;
11228;SDS011;5671;47.936;8.716;2023-02-27T04:53:33;1.50;;;1.40;;
11228;SDS011;5671;47.936;8.716;2023-02-27T04:56:07;2.08;;;1.40;;
11228;SDS011;5671;47.936;8.716;2023-02-27T04:58:40;2.35;;;1.58;;
11228;SDS011;5671;47.936;8.716;2023-02-27T05:01:11;1.85;;;1.63;;
11228;SDS011;5671;47.936;8.716;2023-02-27T05:03:42;1.67;;;1.58;;
11228;SDS011;5671;47.936;8.716;2023-02-27T05:06:13;4.90;;;1.60;;
11228;SDS011;5671;47.936;8.716;2023-02-27T05:08:43;1.20;;;1.10;;
11228;SDS011;5671;47.936;8.716;2023-02-27T05:11:22;2.42;;;1.30;;
11228;SDS011;5671;47.936;8.716;2023-02-27T05:13:55;1.58;;;1.40;;
11228;SDS011;5671;47.936;8.716;2023-02-27T05:16:28;2.58;;;1.40;;
11228;SDS011;5671;47.936;8.716;2023-02-27T05:18:58;1.77;;;1.35;;
11228;SDS011;5671;47.936;8.716;2023-02-27T05:21:29;2.23;;;1.77;;
11228;SDS011;5671;47.936;8.716;2023-02-27T05:24:01;1.58;;;1.38;;
11228;SDS011;5671;47.936;8.716;2023-02-27T05:26:39;1.65;;;1.52;;
11228;SDS011;5671;47.936;8.716;2023-02-27T05:29:29;1.77;;;1.50;;
11228;SDS011;5671;47.936;8.716;2023-02-27T05:32:03;2.08;;;1.38;;
11228;SDS011;5671;47.936;8.716;2023-02-27T05:34:38;1.45;;;1.35;;
11228;SDS011;5671;47.936;8.716;2023-02-27T05:37:11;1.60;;;1.50;;
11228;SDS011;5671;47.936;8.716;2023-02-27T05:39:41;1.73;;;1.60;;
11228;SDS011;5671;47.936;8.716;2023-02-27T05:42:12;2.45;;;1.92;;
11228;SDS011;5671;47.936;8.716;2023-02-27T05:44:46;2.47;;;1.83;;
11228;SDS011;5671;47.936;8.716;2023-02-27T05:47:20;2.05;;;1.58;;
11228;SDS011;5671;47.936;8.716;2023-02-27T05:49:50;1.92;;;1.60;;
11228;SDS011;5671;47.936;8.716;2023-02-27T05:52:21;2.08;;;1.70;;
11228;SDS011;5671;47.936;8.716;2023-02-27T05:54:51;1.83;;;1.65;;
11228;SDS011;5671;47.936;8.716;2023-02-27T05:57:25;1.90;;;1.70;;
11228;SDS011;5671;47.936;8.716;2023-02-27T05:59:58;2.58;;;1.92;;
11228;SDS011;5671;47.936;8.716;2023-02-27T06:02:30;1.55;;;1.40;;
11228;SDS011;5671;47.936;8.716;2023-02-27T06:04:57;3.92;;;2.30;;
11228;SDS011;5671;47.936;8.716;2023-02-27T06:07:24;9.35;;;6.25;;
11228;SDS011;5671;47.936;8.716;2023-02-27T06:09:51;5.13;;;3.33;;
11228;SDS011;5671;47.936;8.716;2023-02-27T06:12:18;1.90;;;1.50;;
11228;SDS011;5671;47.936;8.716;2023-02-27T06:14:44;1.73;;;1.60;;
11228;SDS011;5671;47.936;8.716;2023-02-27T06:17:13;1.73;;;1.63;;
11228;SDS011;5671;47.936;8.716;2023-02-27T06:19:40;1.65;;;1.55;;
11228;SDS011;5671;47.936;8.716;2023-02-27T06:22:07;2.00;;;1.90;;
11228;SDS011;5671;47.936;8.716;2023-02-27T06:24:34;3.33;;;1.80;;
11228;SDS011;5671;47.936;8.716;2023-02-27T06:27:01;2.90;;;1.77;;
11228;SDS011;5671;47.936;8.716;2023-02-27T06:29:28;1.52;;;1.42;;
11228;SDS011;5671;47.936;8.716;2023-02-27T06:31:55;2.03;;;1.80;;
11228;SDS011;5671;47.936;8.716;2023-02-27T06:34:24;2.72;;;1.80;;
11228;SDS011;5671;47.936;8.716;2023-02-27T06:36:51;3.28;;;1.83;;
11228;SDS011;5671;47.936;8.716;2023-02-27T06:39:18;1.80;;;1.70;;
11228;SDS011;5671;47.936;8.716;2023-02-27T06:41:45;2.65;;;1.80;;
11228;SDS011;5671;47.936;8.716;2023-02-27T06:44:11;1.92;;;1.70;;
11228;SDS011;5671;47.936;8.716;2023-02-27T06:46:38;1.83;;;1.50;;
11228;SDS011;5671;47.936;8.716;2023-02-27T06:49:05;2.00;;;1.73;;
11228;SDS011;5671;47.936;8.716;2023-02-27T06:51:33;1.50;;;1.40;;
11228;SDS011;5671;47.936;8.716;2023-02-27T06:54:00;1.60;;;1.50;;
11228;SDS011;5671;47.936;8.716;2023-02-27T06:56:27;3.95;;;2.08;;
11228;SDS011;5671;47.936;8.716;2023-02-27T06:58:55;1.90;;;1.80;;
11228;SDS011;5671;47.936;8.716;2023-02-27T07:01:22;3.40;;;2.00;;
11228;SDS011;5671;47.936;8.716;2023-02-27T07:03:50;2.55;;;2.17;;
11228;SDS011;5671;47.936;8.716;2023-02-27T07:06:17;2.78;;;2.00;;
11228;SDS011;5671;47.936;8.716;2023-02-27T07:08:45;2.00;;;1.85;;
11228;SDS011;5671;47.936;8.716;2023-02-27T07:11:12;2.80;;;2.10;;
11228;SDS011;5671;47.936;8.716;2023-02-27T07:13:39;1.90;;;1.80;;
11228;SDS011;5671;47.936;8.716;2023-02-27T07:16:06;2.85;;;1.80;;
11228;SDS011;5671;47.936;8.716;2023-02-27T07:18:33;2.03;;;1.70;;
11228;SDS011;5671;47.936;8.716;2023-02-27T07:21:00;2.15;;;1.92;;
11228;SDS011;5671;47.936;8.716;2023-02-27T07:23:27;3.75;;;1.90;;
11228;SDS011;5671;47.936;8.716;2023-02-27T07:25:55;1.75;;;1.48;;
11228;SDS011;5671;47.936;8.716;2023-02-27T07:28:22;3.42;;;1.83;;
11228;SDS011;5671;47.936;8.716;2023-02-27T07:30:51;2.17;;;1.90;;
11228;SDS011;5671;47.936;8.716;2023-02-27T07:33:19;1.85;;;1.70;;
11228;SDS011;5671;47.936;8.716;2023-02-27T07:35:47;1.90;;;1.60;;
11228;SDS011;5671;47.936;8.716;2023-02-27T07:38:14;2.03;;;1.90;;
11228;SDS011;5671;47.936;8.716;2023-02-27T07:40:43;1.17;;;1.17;;
11228;SDS011;5671;47.936;8.716;2023-02-27T07:43:11;2.88;;;1.90;;
11228;SDS011;5671;47.936;8.716;2023-02-27T07:45:38;1.93;;;1.80;;
11228;SDS011;5671;47.936;8.716;2023-02-27T07:48:05;3.75;;;1.70;;
11228;SDS011;5671;47.936;8.716;2023-02-27T07:50:32;6.20;;;2.10;;
11228;SDS011;5671;47.936;8.716;2023-02-27T07:52:59;1.63;;;1.52;;
11228;SDS011;5671;47.936;8.716;2023-02-27T07:55:25;2.38;;;1.70;;
11228;SDS011;5671;47.936;8.716;2023-02-27T07:57:52;2.10;;;1.83;;
11228;SDS011;5671;47.936;8.716;2023-02-27T08:00:20;1.50;;;1.33;;
11228;SDS011;5671;47.936;8.716;2023-02-27T08:02:47;2.25;;;1.92;;
11228;SDS011;5671;47.936;8.716;2023-02-27T08:05:14;2.47;;;1.73;;
11228;SDS011;5671;47.936;8.716;2023-02-27T08:07:41;1.83;;;1.65;;
11228;SDS011;5671;47.936;8.716;2023-02-27T08:10:09;2.45;;;1.75;;
11228;SDS011;5671;47.936;8.716;2023-02-27T08:12:36;11.77;;;1.92;;
11228;SDS011;5671;47.936;8.716;2023-02-27T08:15:04;2.17;;;1.70;;
11228;SDS011;5671;47.936;8.716;2023-02-27T08:17:33;2.10;;;1.90;;
11228;SDS011;5671;47.936;8.716;2023-02-27T08:20:00;1.83;;;1.43;;
11228;SDS011;5671;47.936;8.716;2023-02-27T08:22:27;2.35;;;2.00;;
11228;SDS011;5671;47.936;8.716;2023-02-27T08:24:54;1.52;;;1.42;;
11228;SDS011;5671;47.936;8.716;2023-02-27T08:27:21;2.20;;;2.00;;
11228;SDS011;5671;47.936;8.716;2023-02-27T08:29:48;3.30;;;1.83;;
11228;SDS011;5671;47.936;8.716;2023-02-27T08:32:14;3.80;;;1.85;;
11228;SDS011;5671;47.936;8.716;2023-02-27T08:34:43;2.50;;;1.60;;
11228;SDS011;5671;47.936;8.716;2023-02-27T08:37:10;4.27;;;1.53;;
11228;SDS011;5671;47.936;8.716;2023-02-27T08:39:37;2.87;;;1.87;;
11228;SDS011;5671;47.936;8.716;2023-02-27T08:42:04;3.60;;;1.52;;
11228;SDS011;5671;47.936;8.716;2023-02-27T08:44:33;7.23;;;2.80;;
11228;SDS011;5671;47.936;8.716;2023-02-27T08:47:00;6.32;;;2.22;;
11228;SDS011;5671;47.936;8.716;2023-02-27T08:49:27;2.97;;;1.88;;
11228;SDS011;5671;47.936;8.716;2023-02-27T08:51:55;5.25;;;1.75;;
11228;SDS011;5671;47.936;8.716;2023-02-27T08:54:22;1.67;;;1.47;;
11228;SDS011;5671;47.936;8.716;2023-02-27T08:56:49;2.10;;;1.60;;
11228;SDS011;5671;47.936;8.716;2023-02-27T08:59:15;6.57;;;2.00;;
11228;SDS011;5671;47.936;8.716;2023-02-27T09:01:42;3.80;;;2.10;;
11228;SDS011;5671;47.936;8.716;2023-02-27T09:04:09;6.30;;;2.00;;
11228;SDS011;5671;47.936;8.716;2023-02-27T09:06:36;2.33;;;1.80;;
11228;SDS011;5671;47.936;8.716;2023-02-27T09:09:04;5.85;;;2.05;;
11228;SDS011;5671;47.936;8.716;2023-02-27T09:11:31;4.32;;;1.90;;
11228;SDS011;5671;47.936;8.716;2023-02-27T09:13:58;5.80;;;2.00;;
11228;SDS011;5671;47.936;8.716;2023-02-27T09:16:25;1.95;;;1.65;;
11228;SDS011;5671;47.936;8.716;2023-02-27T09:18:52;2.45;;;1.70;;
11228;SDS011;5671;47.936;8.716;2023-02-27T09:21:18;3.92;;;1.60;;
11228;SDS011;5671;47.936;8.716;2023-02-27T09:23:46;4.30;;;1.55;;
11228;SDS011;5671;47.936;8.716;2023-02-27T09:26:14;1.90;;;1.73;;
11228;SDS011;5671;47.936;8.716;2023-02-27T09:28:42;1.97;;;1.70;;
11228;SDS011;5671;47.936;8.716;2023-02-27T09:31:09;4.50;;;1.90;;
11228;SDS011;5671;47.936;8.716;2023-02-27T09:33:37;4.67;;;1.80;;
11228;SDS011;5671;47.936;8.716;2023-02-27T09:36:04;2.58;;;1.73;;
11228;SDS011;5671;47.936;8.716;2023-02-27T09:38:31;6.40;;;2.30;;
11228;SDS011;5671;47.936;8.716;2023-02-27T09:40:58;1.73;;;1.55;;
11228;SDS011;5671;47.936;8.716;2023-02-27T09:43:28;4.40;;;1.83;;
11228;SDS011;5671;47.936;8.716;2023-02-27T09:46:01;4.75;;;1.98;;
11228;SDS011;5671;47.936;8.716;2023-02-27T09:48:31;12.23;;;2.08;;
11228;SDS011;5671;47.936;8.716;2023-02-27T09:51:02;1.67;;;1.58;;
11228;SDS011;5671;47.936;8.716;2023-02-27T09:53:33;2.00;;;1.77;;
11228;SDS011;5671;47.936;8.716;2023-02-27T09:56:05;4.40;;;1.77;;
11228;SDS011;5671;47.936;8.716;2023-02-27T09:58:42;2.13;;;1.60;;
11228;SDS011;5671;47.936;8.716;2023-02-27T10:01:12;4.13;;;1.70;;
11228;SDS011;5671;47.936;8.716;2023-02-27T10:03:50;2.73;;;1.67;;
11228;SDS011;5671;47.936;8.716;2023-02-27T10:06:30;3.23;;;2.03;;
11228;SDS011;5671;47.936;8.716;2023-02-27T10:09:05;2.47;;;1.70;;
11228;SDS011;5671;47.936;8.716;2023-02-27T10:11:43;2.50;;;1.70;;
11228;SDS011;5671;47.936;8.716;2023-02-27T10:14:24;2.08;;;1.60;;
11228;SDS011;5671;47.936;8.716;2023-02-27T10:17:00;2.83;;;2.00;;
11228;SDS011;5671;47.936;8.716;2023-02-27T10:19:35;4.60;;;1.67;;
11228;SDS011;5671;47.936;8.716;2023-02-27T10:22:04;2.60;;;1.83;;
11228;SDS011;5671;47.936;8.716;2023-02-27T10:24:36;2.65;;;1.65;;
11228;SDS011;5671;47.936;8.716;2023-02-27T10:27:05;5.38;;;2.13;;
11228;SDS011;5671;47.936;8.716;2023-02-27T10:29:41;4.78;;;2.38;;
11228;SDS011;5671;47.936;8.716;2023-02-27T10:32:10;4.40;;;2.10;;
11228;SDS011;5671;47.936;8.716;2023-02-27T10:34:38;4.67;;;2.57;;
11228;SDS011;5671;47.936;8.716;2023-02-27T10:37:06;3.97;;;2.60;;
11228;SDS011;5671;47.936;8.716;2023-02-27T10:39:41;3.65;;;2.50;;
11228;SDS011;5671;47.936;8.716;2023-02-27T10:42:12;7.57;;;3.30;;
11228;SDS011;5671;47.936;8.716;2023-02-27T10:44:42;1.93;;;1.70;;
11228;SDS011;5671;47.936;8.716;2023-02-27T10:47:11;4.53;;;1.73;;
11228;SDS011;5671;47.936;8.716;2023-02-27T10:49:40;4.03;;;1.80;;
11228;SDS011;5671;47.936;8.716;2023-02-27T10:52:09;2.00;;;1.57;;
11228;SDS011;5671;47.936;8.716;2023-02-27T10:54:38;2.50;;;1.80;;
11228;SDS011;5671;47.936;8.716;2023-02-27T10:57:06;8.77;;;2.00;;
11228;SDS011;5671;47.936;8.716;2023-02-27T10:59:51;2.40;;;1.60;;
11228;SDS011;5671;47.936;8.716;2023-02-27T11:02:20;5.10;;;1.93;;
11228;SDS011;5671;47.936;8.716;2023-02-27T11:04:49;6.37;;;2.20;;
11228;SDS011;5671;47.936;8.716;2023-02-27T11:07:25;4.43;;;1.90;;
11228;SDS011;5671;47.936;8.716;2023-02-27T11:09:58;2.00;;;1.73;;
11228;SDS011;5671;47.936;8.716;2023-02-27T11:12:31;2.07;;;1.50;;
11228;SDS011;5671;47.936;8.716;2023-02-27T11:15:00;2.07;;;1.87;;
11228;SDS011;5671;47.936;8.716;2023-02-27T11:17:45;4.03;;;1.67;;
11228;SDS011;5671;47.936;8.716;2023-02-27T11:20:30;3.53;;;1.60;;
11228;SDS011;5671;47.936;8.716;2023-02-27T11:23:01;3.63;;;2.77;;
11228;SDS011;5671;47.936;8.716;2023-02-27T11:25:29;2.83;;;2.10;;
11228;SDS011;5671;47.936;8.716;2023-02-27T11:28:00;3.17;;;1.93;;
11228;SDS011;5671;47.936;8.716;2023-02-27T11:30:42;3.53;;;2.03;;
11228;SDS011;5671;47.936;8.716;2023-02-27T11:33:14;2.00;;;1.80;;
11228;SDS011;5671;47.936;8.716;2023-02-27T11:35:48;5.17;;;1.70;;
11228;SDS011;5671;47.936;8.716;2023-02-27T11:38:17;4.60;;;2.03;;
11228;SDS011;5671;47.936;8.716;2023-02-27T11:40:48;2.97;;;1.70;;
11228;SDS011;5671;47.936;8.716;2023-02-27T11:43:18;2.10;;;1.90;;
11228;SDS011;5671;47.936;8.716;2023-02-27T11:45:51;5.57;;;1.70;;
11228;SDS011;5671;47.936;8.716;2023-02-27T11:48:21;2.37;;;1.20;;
11228;SDS011;5671;47.936;8.716;2023-02-27T11:51:04;1.70;;;1.33;;
11228;SDS011;5671;47.936;8.716;2023-02-27T11:53:40;3.57;;;1.90;;
11228;SDS011;5671;47.936;8.716;2023-02-27T11:56:23;6.77;;;2.13;;
11228;SDS011;5671;47.936;8.716;2023-02-27T11:59:02;1.73;;;1.63;;
11228;SDS011;5671;47.936;8.716;2023-02-27T12:01:41;3.67;;;2.10;;
11228;SDS011;5671;47.936;8.716;2023-02-27T12:04:11;2.70;;;1.87;;
11228;SDS011;5671;47.936;8.716;2023-02-27T12:06:43;2.20;;;1.60;;
11228;SDS011;5671;47.936;8.716;2023-02-27T12:09:22;2.57;;;1.90;;
11228;SDS011;5671;47.936;8.716;2023-02-27T12:12:01;1.43;;;1.33;;
11228;SDS011;5671;47.936;8.716;2023-02-27T12:14:35;2.90;;;1.70;;
11228;SDS011;5671;47.936;8.716;2023-02-27T12:17:12;10.88;;;2.47;;
11228;SDS011;5671;47.936;8.716;2023-02-27T12:19:45;4.33;;;2.30;;
11228;SDS011;5671;47.936;8.716;2023-02-27T12:22:21;4.73;;;1.53;;
11228;SDS011;5671;47.936;8.716;2023-02-27T12:24:51;6.63;;;2.03;;
11228;SDS011;5671;47.936;8.716;2023-02-27T12:27:24;8.25;;;1.90;;
11228;SDS011;5671;47.936;8.716;2023-02-27T12:29:59;4.33;;;1.70;;
11228;SDS011;5671;47.936;8.716;2023-02-27T12:32:35;2.93;;;1.50;;
11228;SDS011;5671;47.936;8.716;2023-02-27T12:35:10;6.90;;;2.53;;
11228;SDS011;5671;47.936;8.716;2023-02-27T12:37:39;3.57;;;2.00;;
11228;SDS011;5671;47.936;8.716;2023-02-27T12:40:13;5.63;;;1.90;;
11228;SDS011;5671;47.936;8.716;2023-02-27T12:42:44;4.67;;;1.90;;
11228;SDS011;5671;47.936;8.716;2023-02-27T12:45:38;4.83;;;1.80;;
11228;SDS011;5671;47.936;8.716;2023-02-27T12:48:26;2.70;;;1.80;;
11228;SDS011;5671;47.936;8.716;2023-02-27T12:51:14;2.60;;;1.85;;
11228;SDS011;5671;47.936;8.716;2023-02-27T12:53:56;4.57;;;1.53;;
11228;SDS011;5671;47.936;8.716;2023-02-27T12:56:40;11.53;;;2.37;;
11228;SDS011;5671;47.936;8.716;2023-02-27T12:59:18;2.90;;;1.90;;
11228;SDS011;5671;47.936;8.716;2023-02-27T13:01:55;2.00;;;1.50;;
11228;SDS011;5671;47.936;8.716;2023-02-27T13:04:33;2.77;;;2.00;;
11228;SDS011;5671;47.936;8.716;2023-02-27T13:07:08;4.87;;;1.80;;
11228;SDS011;5671;47.936;8.716;2023-02-27T13:09:44;2.77;;;1.80;;
11228;SDS011;5671;47.936;8.716;2023-02-27T13:12:22;6.47;;;2.27;;
11228;SDS011;5671;47.936;8.716;2023-02-27T13:14:55;2.90;;;1.97;;
11228;SDS011;5671;47.936;8.716;2023-02-27T13:17:30;3.07;;;1.87;;
11228;SDS011;5671;47.936;8.716;2023-02-27T13:20:07;6.00;;;1.87;;
11228;SDS011;5671;47.936;8.716;2023-02-27T13:22:52;2.13;;;1.90;;
11228;SDS011;5671;47.936;8.716;2023-02-27T13:25:27;5.10;;;1.80;;
11228;SDS011;5671;47.936;8.716;2023-02-27T13:27:56;2.63;;;2.13;;
11228;SDS011;5671;47.936;8.716;2023-02-27T13:30:28;2.90;;;2.00;;
11228;SDS011;5671;47.936;8.716;2023-02-27T13:33:00;3.53;;;2.00;;
11228;SDS011;5671;47.936;8.716;2023-02-27T13:35:41;2.37;;;1.73;;
11228;SDS011;5671;47.936;8.716;2023-02-27T13:38:29;2.73;;;1.67;;
11228;SDS011;5671;47.936;8.716;2023-02-27T13:50:02;2.40;;;1.80;;
11228;SDS011;5671;47.936;8.716;2023-02-27T13:52:41;3.47;;;2.10;;
11228;SDS011;5671;47.936;8.716;2023-02-27T13:55:22;2.53;;;1.90;;
11228;SDS011;5671;47.936;8.716;2023-02-27T13:57:52;1.92;;;1.80;;
11228;SDS011;5671;47.936;8.716;2023-02-27T14:00:22;1.87;;;1.70;;
11228;SDS011;5671;47.936;8.716;2023-02-27T14:02:51;2.60;;;1.97;;
11228;SDS011;5671;47.936;8.716;2023-02-27T14:05:25;2.50;;;2.03;;
11228;SDS011;5671;47.936;8.716;2023-02-27T14:08:02;3.23;;;2.10;;
11228;SDS011;5671;47.936;8.716;2023-02-27T14:10:34;3.57;;;1.67;;
11228;SDS011;5671;47.936;8.716;2023-02-27T14:13:02;3.83;;;2.03;;
11228;SDS011;5671;47.936;8.716;2023-02-27T14:15:53;1.93;;;1.70;;
11228;SDS011;5671;47.936;8.716;2023-02-27T14:24:31;3.70;;;1.93;;
11228;SDS011;5671;47.936;8.716;2023-02-27T14:27:03;4.00;;;1.70;;
11228;SDS011;5671;47.936;8.716;2023-02-27T14:29:42;6.53;;;2.13;;
11228;SDS011;5671;47.936;8.716;2023-02-27T14:32:13;3.63;;;1.73;;
11228;SDS011;5671;47.936;8.716;2023-02-27T14:34:44;2.20;;;1.93;;
11228;SDS011;5671;47.936;8.716;2023-02-27T14:37:12;2.33;;;1.80;;
11228;SDS011;5671;47.936;8.716;2023-02-27T14:39:42;6.60;;;2.30;;
11228;SDS011;5671;47.936;8.716;2023-02-27T14:42:22;4.53;;;1.93;;
11228;SDS011;5671;47.936;8.716;2023-02-27T14:44:55;3.47;;;1.67;;
11228;SDS011;5671;47.936;8.716;2023-02-27T14:47:23;3.57;;;1.77;;
11228;SDS011;5671;47.936;8.716;2023-02-27T14:49:54;2.53;;;1.60;;
11228;SDS011;5671;47.936;8.716;2023-02-27T14:52:22;2.07;;;1.83;;
11228;SDS011;5671;47.936;8.716;2023-02-27T14:54:51;2.00;;;1.53;;
11228;SDS011;5671;47.936;8.716;2023-02-27T14:57:30;2.20;;;1.70;;
11228;SDS011;5671;47.936;8.716;2023-02-27T15:00:06;2.03;;;1.70;;
11228;SDS011;5671;47.936;8.716;2023-02-27T15:02:59;2.30;;;1.67;;
11228;SDS011;5671;47.936;8.716;2023-02-27T15:05:36;5.33;;;2.03;;
11228;SDS011;5671;47.936;8.716;2023-02-27T15:08:04;1.97;;;1.57;;
11228;SDS011;5671;47.936;8.716;2023-02-27T15:10:40;5.03;;;1.87;;
11228;SDS011;5671;47.936;8.716;2023-02-27T15:13:14;3.50;;;1.67;;
11228;SDS011;5671;47.936;8.716;2023-02-27T15:15:50;1.60;;;1.50;;
11228;SDS011;5671;47.936;8.716;2023-02-27T15:18:47;1.77;;;1.47;;
11228;SDS011;5671;47.936;8.716;2023-02-27T15:21:16;2.50;;;1.50;;
11228;SDS011;5671;47.936;8.716;2023-02-27T15:23:52;2.03;;;1.60;;
11228;SDS011;5671;47.936;8.716;2023-02-27T15:26:38;6.47;;;2.00;;
11228;SDS011;5671;47.936;8.716;2023-02-27T15:29:07;1.87;;;1.60;;
11228;SDS011;5671;47.936;8.716;2023-02-27T15:31:44;2.27;;;1.30;;
11228;SDS011;5671;47.936;8.716;2023-02-27T15:34:11;1.27;;;1.17;;
11228;SDS011;5671;47.936;8.716;2023-02-27T15:36:43;2.80;;;1.90;;
11228;SDS011;5671;47.936;8.716;2023-02-27T15:39:18;4.37;;;1.63;;
11228;SDS011;5671;47.936;8.716;2023-02-27T15:42:00;1.77;;;1.37;;
11228;SDS011;5671;47.936;8.716;2023-02-27T15:47:41;1.90;;;1.60;;
11228;SDS011;5671;47.936;8.716;2023-02-27T15:50:36;3.37;;;1.43;;
11228;SDS011;5671;47.936;8.716;2023-02-27T15:56:45;6.63;;;1.90;;